sensor_id;sensor_type;location;lat;lon;timestamp;P1;durP1;ratioP1;P2;durP2;ratioP2
26277;SDS011;14000;52.056;8.510;2024-03-02T00:00:20;20.17;;;10.13;;
26277;SDS011;14000;52.056;8.510;2024-03-02T00:02:47;19.17;;;10.27;;
26277;SDS011;14000;52.056;8.510;2024-03-02T00:05:15;20.60;;;9.77;;
26277;SDS011;14000;52.056;8.510;2024-03-02T00:07:42;18.23;;;9.37;;
26277;SDS011;14000;52.056;8.510;2024-03-02T00:10:10;18.67;;;9.43;;
26277;SDS011;14000;52.056;8.510;2024-03-02T00:12:37;16.37;;;9.10;;
26277;SDS011;14000;52.056;8.510;2024-03-02T00:15:06;18.23;;;9.33;;
26277;SDS011;14000;52.056;8.510;2024-03-02T00:17:52;19.37;;;9.57;;
26277;SDS011;14000;52.056;8.510;2024-03-02T00:20:18;17.90;;;9.50;;
26277;SDS011;14000;52.056;8.510;2024-03-02T00:22:47;20.70;;;10.40;;
26277;SDS011;14000;52.056;8.510;2024-03-02T00:25:13;18.90;;;10.00;;
26277;SDS011;14000;52.056;8.510;2024-03-02T00:27:39;18.17;;;9.57;;
26277;SDS011;14000;52.056;8.510;2024-03-02T00:30:06;19.47;;;10.60;;
26277;SDS011;14000;52.056;8.510;2024-03-02T00:33:01;17.07;;;9.33;;
26277;SDS011;14000;52.056;8.510;2024-03-02T00:35:27;19.93;;;10.47;;
26277;SDS011;14000;52.056;8.510;2024-03-02T00:37:52;20.00;;;10.30;;
26277;SDS011;14000;52.056;8.510;2024-03-02T00:40:19;21.23;;;11.00;;
26277;SDS011;14000;52.056;8.510;2024-03-02T00:42:45;19.63;;;10.07;;
26277;SDS011;14000;52.056;8.510;2024-03-02T00:45:10;20.40;;;10.90;;
26277;SDS011;14000;52.056;8.510;2024-03-02T00:47:38;17.03;;;9.50;;
26277;SDS011;14000;52.056;8.510;2024-03-02T00:50:05;21.40;;;11.17;;
26277;SDS011;14000;52.056;8.510;2024-03-02T00:52:31;20.10;;;10.67;;
26277;SDS011;14000;52.056;8.510;2024-03-02T00:54:58;19.23;;;10.47;;
26277;SDS011;14000;52.056;8.510;2024-03-02T00:57:23;23.63;;;11.43;;
26277;SDS011;14000;52.056;8.510;2024-03-02T00:59:51;17.57;;;9.20;;
26277;SDS011;14000;52.056;8.510;2024-03-02T01:02:17;19.07;;;10.70;;
26277;SDS011;14000;52.056;8.510;2024-03-02T01:04:45;20.33;;;11.37;;
26277;SDS011;14000;52.056;8.510;2024-03-02T01:07:10;17.73;;;10.07;;
26277;SDS011;14000;52.056;8.510;2024-03-02T01:09:36;20.43;;;10.93;;
26277;SDS011;14000;52.056;8.510;2024-03-02T01:12:02;19.20;;;10.17;;
26277;SDS011;14000;52.056;8.510;2024-03-02T01:14:27;18.33;;;10.03;;
26277;SDS011;14000;52.056;8.510;2024-03-02T01:16:53;19.57;;;10.33;;
26277;SDS011;14000;52.056;8.510;2024-03-02T01:19:19;18.93;;;10.13;;
26277;SDS011;14000;52.056;8.510;2024-03-02T01:21:44;19.23;;;10.23;;
26277;SDS011;14000;52.056;8.510;2024-03-02T01:24:10;18.70;;;10.03;;
26277;SDS011;14000;52.056;8.510;2024-03-02T01:26:35;21.33;;;10.77;;
26277;SDS011;14000;52.056;8.510;2024-03-02T01:29:01;21.10;;;11.27;;
26277;SDS011;14000;52.056;8.510;2024-03-02T01:31:26;19.73;;;11.10;;
26277;SDS011;14000;52.056;8.510;2024-03-02T01:33:52;19.67;;;10.17;;
26277;SDS011;14000;52.056;8.510;2024-03-02T01:36:17;18.13;;;9.30;;
26277;SDS011;14000;52.056;8.510;2024-03-02T01:38:43;19.73;;;10.00;;
26277;SDS011;14000;52.056;8.510;2024-03-02T01:41:09;20.97;;;10.43;;
26277;SDS011;14000;52.056;8.510;2024-03-02T01:43:35;19.40;;;10.50;;
26277;SDS011;14000;52.056;8.510;2024-03-02T01:46:01;19.57;;;9.43;;
26277;SDS011;14000;52.056;8.510;2024-03-02T01:48:26;18.40;;;9.90;;
26277;SDS011;14000;52.056;8.510;2024-03-02T01:50:52;17.87;;;9.30;;
26277;SDS011;14000;52.056;8.510;2024-03-02T01:53:17;17.97;;;9.70;;
26277;SDS011;14000;52.056;8.510;2024-03-02T01:55:43;20.80;;;10.13;;
26277;SDS011;14000;52.056;8.510;2024-03-02T01:58:09;19.57;;;9.87;;
26277;SDS011;14000;52.056;8.510;2024-03-02T02:00:35;20.53;;;10.27;;
26277;SDS011;14000;52.056;8.510;2024-03-02T02:03:00;18.00;;;9.57;;
26277;SDS011;14000;52.056;8.510;2024-03-02T02:05:26;16.47;;;8.70;;
26277;SDS011;14000;52.056;8.510;2024-03-02T02:07:52;18.27;;;9.50;;
26277;SDS011;14000;52.056;8.510;2024-03-02T02:10:17;17.50;;;9.20;;
26277;SDS011;14000;52.056;8.510;2024-03-02T02:12:43;18.90;;;9.57;;
26277;SDS011;14000;52.056;8.510;2024-03-02T02:15:21;19.03;;;10.00;;
26277;SDS011;14000;52.056;8.510;2024-03-02T02:17:56;19.90;;;10.17;;
26277;SDS011;14000;52.056;8.510;2024-03-02T02:20:22;21.40;;;9.80;;
26277;SDS011;14000;52.056;8.510;2024-03-02T02:22:56;19.47;;;10.27;;
26277;SDS011;14000;52.056;8.510;2024-03-02T02:25:28;18.40;;;9.73;;
26277;SDS011;14000;52.056;8.510;2024-03-02T02:27:55;19.60;;;9.73;;
26277;SDS011;14000;52.056;8.510;2024-03-02T02:30:22;18.03;;;9.00;;
26277;SDS011;14000;52.056;8.510;2024-03-02T02:32:54;19.83;;;10.20;;
26277;SDS011;14000;52.056;8.510;2024-03-02T02:35:20;17.57;;;8.90;;
26277;SDS011;14000;52.056;8.510;2024-03-02T02:37:45;19.20;;;10.80;;
26277;SDS011;14000;52.056;8.510;2024-03-02T02:40:12;19.50;;;9.93;;
26277;SDS011;14000;52.056;8.510;2024-03-02T02:42:38;17.97;;;9.30;;
26277;SDS011;14000;52.056;8.510;2024-03-02T02:45:04;17.17;;;9.30;;
26277;SDS011;14000;52.056;8.510;2024-03-02T02:47:31;18.80;;;9.57;;
26277;SDS011;14000;52.056;8.510;2024-03-02T02:49:58;17.67;;;9.17;;
26277;SDS011;14000;52.056;8.510;2024-03-02T02:52:24;18.97;;;9.87;;
26277;SDS011;14000;52.056;8.510;2024-03-02T02:54:49;17.57;;;9.20;;
26277;SDS011;14000;52.056;8.510;2024-03-02T02:57:16;20.30;;;9.77;;
26277;SDS011;14000;52.056;8.510;2024-03-02T02:59:41;16.87;;;9.53;;
26277;SDS011;14000;52.056;8.510;2024-03-02T03:02:07;16.97;;;9.10;;
26277;SDS011;14000;52.056;8.510;2024-03-02T03:04:32;19.93;;;9.93;;
26277;SDS011;14000;52.056;8.510;2024-03-02T03:06:58;17.87;;;9.20;;
26277;SDS011;14000;52.056;8.510;2024-03-02T03:09:24;19.80;;;10.10;;
26277;SDS011;14000;52.056;8.510;2024-03-02T03:11:49;18.47;;;9.80;;
26277;SDS011;14000;52.056;8.510;2024-03-02T03:14:15;19.77;;;10.17;;
26277;SDS011;14000;52.056;8.510;2024-03-02T03:16:40;17.60;;;9.50;;
26277;SDS011;14000;52.056;8.510;2024-03-02T03:19:06;18.17;;;9.90;;
26277;SDS011;14000;52.056;8.510;2024-03-02T03:21:31;20.37;;;10.03;;
26277;SDS011;14000;52.056;8.510;2024-03-02T03:23:57;19.50;;;9.77;;
26277;SDS011;14000;52.056;8.510;2024-03-02T03:26:22;19.53;;;10.33;;
26277;SDS011;14000;52.056;8.510;2024-03-02T03:28:48;17.17;;;9.37;;
26277;SDS011;14000;52.056;8.510;2024-03-02T03:31:13;18.47;;;10.07;;
26277;SDS011;14000;52.056;8.510;2024-03-02T03:33:39;20.40;;;10.07;;
26277;SDS011;14000;52.056;8.510;2024-03-02T03:36:04;18.30;;;9.50;;
26277;SDS011;14000;52.056;8.510;2024-03-02T03:38:30;20.37;;;10.13;;
26277;SDS011;14000;52.056;8.510;2024-03-02T03:40:56;21.50;;;10.83;;
26277;SDS011;14000;52.056;8.510;2024-03-02T03:43:21;20.50;;;11.27;;
26277;SDS011;14000;52.056;8.510;2024-03-02T03:45:47;19.83;;;10.53;;
26277;SDS011;14000;52.056;8.510;2024-03-02T03:48:12;21.00;;;11.53;;
26277;SDS011;14000;52.056;8.510;2024-03-02T03:50:38;22.90;;;11.77;;
26277;SDS011;14000;52.056;8.510;2024-03-02T03:53:04;22.40;;;11.67;;
26277;SDS011;14000;52.056;8.510;2024-03-02T03:55:29;20.53;;;11.37;;
26277;SDS011;14000;52.056;8.510;2024-03-02T03:57:55;22.37;;;11.23;;
26277;SDS011;14000;52.056;8.510;2024-03-02T04:00:20;21.93;;;12.30;;
26277;SDS011;14000;52.056;8.510;2024-03-02T04:02:46;24.57;;;12.23;;
26277;SDS011;14000;52.056;8.510;2024-03-02T04:05:11;23.50;;;12.23;;
26277;SDS011;14000;52.056;8.510;2024-03-02T04:07:37;22.93;;;12.77;;
26277;SDS011;14000;52.056;8.510;2024-03-02T04:10:08;25.07;;;13.53;;
26277;SDS011;14000;52.056;8.510;2024-03-02T04:12:35;23.03;;;12.90;;
26277;SDS011;14000;52.056;8.510;2024-03-02T04:15:02;23.03;;;12.53;;
26277;SDS011;14000;52.056;8.510;2024-03-02T04:17:29;23.87;;;12.77;;
26277;SDS011;14000;52.056;8.510;2024-03-02T04:19:56;21.27;;;11.37;;
26277;SDS011;14000;52.056;8.510;2024-03-02T04:22:21;23.30;;;12.90;;
26277;SDS011;14000;52.056;8.510;2024-03-02T04:24:47;25.10;;;13.30;;
26277;SDS011;14000;52.056;8.510;2024-03-02T04:27:12;23.93;;;13.63;;
26277;SDS011;14000;52.056;8.510;2024-03-02T04:29:38;26.00;;;12.93;;
26277;SDS011;14000;52.056;8.510;2024-03-02T04:32:04;22.67;;;13.00;;
26277;SDS011;14000;52.056;8.510;2024-03-02T04:34:29;21.97;;;12.20;;
26277;SDS011;14000;52.056;8.510;2024-03-02T04:36:55;24.63;;;13.10;;
26277;SDS011;14000;52.056;8.510;2024-03-02T04:39:21;27.20;;;14.20;;
26277;SDS011;14000;52.056;8.510;2024-03-02T04:41:46;25.67;;;14.07;;
26277;SDS011;14000;52.056;8.510;2024-03-02T04:44:12;24.67;;;13.57;;
26277;SDS011;14000;52.056;8.510;2024-03-02T04:46:38;23.77;;;12.87;;
26277;SDS011;14000;52.056;8.510;2024-03-02T04:49:03;24.07;;;13.03;;
26277;SDS011;14000;52.056;8.510;2024-03-02T04:51:29;25.90;;;13.73;;
26277;SDS011;14000;52.056;8.510;2024-03-02T04:53:55;25.97;;;14.07;;
26277;SDS011;14000;52.056;8.510;2024-03-02T04:56:20;25.80;;;14.53;;
26277;SDS011;14000;52.056;8.510;2024-03-02T04:59:04;23.90;;;13.80;;
26277;SDS011;14000;52.056;8.510;2024-03-02T05:01:30;24.73;;;13.23;;
26277;SDS011;14000;52.056;8.510;2024-03-02T05:03:55;26.80;;;14.13;;
26277;SDS011;14000;52.056;8.510;2024-03-02T05:06:21;26.60;;;14.13;;
26277;SDS011;14000;52.056;8.510;2024-03-02T05:08:47;28.20;;;15.57;;
26277;SDS011;14000;52.056;8.510;2024-03-02T05:11:13;25.50;;;14.23;;
26277;SDS011;14000;52.056;8.510;2024-03-02T05:14:07;26.53;;;13.83;;
26277;SDS011;14000;52.056;8.510;2024-03-02T05:16:33;25.87;;;14.13;;
26277;SDS011;14000;52.056;8.510;2024-03-02T05:18:59;29.83;;;15.33;;
26277;SDS011;14000;52.056;8.510;2024-03-02T05:21:25;28.40;;;14.57;;
26277;SDS011;14000;52.056;8.510;2024-03-02T05:23:50;28.03;;;14.20;;
26277;SDS011;14000;52.056;8.510;2024-03-02T05:26:16;26.33;;;13.73;;
26277;SDS011;14000;52.056;8.510;2024-03-02T05:28:42;24.37;;;13.93;;
26277;SDS011;14000;52.056;8.510;2024-03-02T05:31:10;28.73;;;15.17;;
26277;SDS011;14000;52.056;8.510;2024-03-02T05:33:39;26.80;;;14.90;;
26277;SDS011;14000;52.056;8.510;2024-03-02T05:36:05;26.10;;;14.47;;
26277;SDS011;14000;52.056;8.510;2024-03-02T05:38:31;28.27;;;15.47;;
26277;SDS011;14000;52.056;8.510;2024-03-02T05:40:57;29.83;;;15.17;;
26277;SDS011;14000;52.056;8.510;2024-03-02T05:43:23;25.07;;;13.67;;
26277;SDS011;14000;52.056;8.510;2024-03-02T05:45:48;31.63;;;14.33;;
26277;SDS011;14000;52.056;8.510;2024-03-02T05:48:14;26.67;;;14.07;;
26277;SDS011;14000;52.056;8.510;2024-03-02T05:50:40;26.00;;;14.37;;
26277;SDS011;14000;52.056;8.510;2024-03-02T05:53:05;26.73;;;14.67;;
26277;SDS011;14000;52.056;8.510;2024-03-02T05:55:31;29.40;;;14.97;;
26277;SDS011;14000;52.056;8.510;2024-03-02T05:57:56;25.93;;;14.53;;
26277;SDS011;14000;52.056;8.510;2024-03-02T06:00:31;32.50;;;15.47;;
26277;SDS011;14000;52.056;8.510;2024-03-02T06:02:57;30.27;;;15.43;;
26277;SDS011;14000;52.056;8.510;2024-03-02T06:05:23;26.97;;;13.97;;
26277;SDS011;14000;52.056;8.510;2024-03-02T06:07:48;29.80;;;15.37;;
26277;SDS011;14000;52.056;8.510;2024-03-02T06:10:14;28.87;;;14.67;;
26277;SDS011;14000;52.056;8.510;2024-03-02T06:12:40;26.87;;;14.00;;
26277;SDS011;14000;52.056;8.510;2024-03-02T06:15:05;30.63;;;15.37;;
26277;SDS011;14000;52.056;8.510;2024-03-02T06:17:31;26.40;;;13.97;;
26277;SDS011;14000;52.056;8.510;2024-03-02T06:19:57;28.67;;;16.03;;
26277;SDS011;14000;52.056;8.510;2024-03-02T06:22:23;30.57;;;15.53;;
26277;SDS011;14000;52.056;8.510;2024-03-02T06:24:50;28.67;;;14.97;;
26277;SDS011;14000;52.056;8.510;2024-03-02T06:27:16;26.90;;;14.63;;
26277;SDS011;14000;52.056;8.510;2024-03-02T06:29:41;31.03;;;15.10;;
26277;SDS011;14000;52.056;8.510;2024-03-02T06:32:07;25.27;;;13.80;;
26277;SDS011;14000;52.056;8.510;2024-03-02T06:34:33;28.77;;;14.43;;
26277;SDS011;14000;52.056;8.510;2024-03-02T06:36:58;25.87;;;13.70;;
26277;SDS011;14000;52.056;8.510;2024-03-02T06:39:24;26.97;;;14.07;;
26277;SDS011;14000;52.056;8.510;2024-03-02T06:41:50;27.77;;;14.33;;
26277;SDS011;14000;52.056;8.510;2024-03-02T06:44:16;28.30;;;15.03;;
26277;SDS011;14000;52.056;8.510;2024-03-02T06:46:42;28.27;;;13.67;;
26277;SDS011;14000;52.056;8.510;2024-03-02T06:49:07;27.03;;;14.07;;
26277;SDS011;14000;52.056;8.510;2024-03-02T06:51:35;28.57;;;15.80;;
26277;SDS011;14000;52.056;8.510;2024-03-02T06:54:00;26.47;;;13.87;;
26277;SDS011;14000;52.056;8.510;2024-03-02T06:56:26;27.80;;;14.70;;
26277;SDS011;14000;52.056;8.510;2024-03-02T06:58:51;26.33;;;13.67;;
26277;SDS011;14000;52.056;8.510;2024-03-02T07:01:17;27.63;;;14.03;;
26277;SDS011;14000;52.056;8.510;2024-03-02T07:03:42;27.73;;;14.50;;
26277;SDS011;14000;52.056;8.510;2024-03-02T07:06:09;27.17;;;14.10;;
26277;SDS011;14000;52.056;8.510;2024-03-02T07:08:34;28.63;;;14.83;;
26277;SDS011;14000;52.056;8.510;2024-03-02T07:11:00;31.23;;;16.50;;
26277;SDS011;14000;52.056;8.510;2024-03-02T07:13:25;31.10;;;15.20;;
26277;SDS011;14000;52.056;8.510;2024-03-02T07:15:51;26.33;;;14.73;;
26277;SDS011;14000;52.056;8.510;2024-03-02T07:18:29;29.13;;;14.70;;
26277;SDS011;14000;52.056;8.510;2024-03-02T07:20:55;30.97;;;15.63;;
26277;SDS011;14000;52.056;8.510;2024-03-02T07:23:24;29.53;;;15.90;;
26277;SDS011;14000;52.056;8.510;2024-03-02T07:25:52;29.33;;;15.17;;
26277;SDS011;14000;52.056;8.510;2024-03-02T07:28:21;30.03;;;15.40;;
26277;SDS011;14000;52.056;8.510;2024-03-02T07:30:47;29.47;;;15.43;;
26277;SDS011;14000;52.056;8.510;2024-03-02T07:33:23;30.50;;;15.43;;
26277;SDS011;14000;52.056;8.510;2024-03-02T07:35:48;28.80;;;15.20;;
26277;SDS011;14000;52.056;8.510;2024-03-02T07:38:14;28.87;;;14.80;;
26277;SDS011;14000;52.056;8.510;2024-03-02T07:40:39;29.53;;;15.13;;
26277;SDS011;14000;52.056;8.510;2024-03-02T07:43:05;30.53;;;15.00;;
26277;SDS011;14000;52.056;8.510;2024-03-02T07:45:31;30.40;;;15.33;;
26277;SDS011;14000;52.056;8.510;2024-03-02T07:47:56;30.63;;;16.67;;
26277;SDS011;14000;52.056;8.510;2024-03-02T07:50:23;31.57;;;16.27;;
26277;SDS011;14000;52.056;8.510;2024-03-02T07:52:48;28.87;;;15.30;;
26277;SDS011;14000;52.056;8.510;2024-03-02T07:55:14;29.77;;;15.57;;
26277;SDS011;14000;52.056;8.510;2024-03-02T07:57:40;35.67;;;16.03;;
26277;SDS011;14000;52.056;8.510;2024-03-02T08:00:06;27.53;;;15.00;;
26277;SDS011;14000;52.056;8.510;2024-03-02T08:02:32;29.40;;;14.73;;
26277;SDS011;14000;52.056;8.510;2024-03-02T08:04:57;27.50;;;13.97;;
26277;SDS011;14000;52.056;8.510;2024-03-02T08:07:23;28.93;;;13.63;;
26277;SDS011;14000;52.056;8.510;2024-03-02T08:09:48;25.03;;;13.40;;
26277;SDS011;14000;52.056;8.510;2024-03-02T08:12:14;24.53;;;12.77;;
26277;SDS011;14000;52.056;8.510;2024-03-02T08:14:40;27.10;;;13.47;;
26277;SDS011;14000;52.056;8.510;2024-03-02T08:17:05;27.10;;;13.70;;
26277;SDS011;14000;52.056;8.510;2024-03-02T08:19:34;24.87;;;13.03;;
26277;SDS011;14000;52.056;8.510;2024-03-02T08:22:00;24.80;;;13.30;;
26277;SDS011;14000;52.056;8.510;2024-03-02T08:24:26;24.83;;;12.23;;
26277;SDS011;14000;52.056;8.510;2024-03-02T08:26:51;24.50;;;12.30;;
26277;SDS011;14000;52.056;8.510;2024-03-02T08:29:17;22.70;;;11.50;;
26277;SDS011;14000;52.056;8.510;2024-03-02T08:31:43;24.43;;;11.10;;
26277;SDS011;14000;52.056;8.510;2024-03-02T08:34:08;21.77;;;10.77;;
26277;SDS011;14000;52.056;8.510;2024-03-02T08:36:34;21.23;;;10.10;;
26277;SDS011;14000;52.056;8.510;2024-03-02T08:39:01;20.20;;;9.73;;
26277;SDS011;14000;52.056;8.510;2024-03-02T08:41:27;20.70;;;9.97;;
26277;SDS011;14000;52.056;8.510;2024-03-02T08:43:52;20.53;;;9.10;;
26277;SDS011;14000;52.056;8.510;2024-03-02T08:46:18;18.63;;;8.77;;
26277;SDS011;14000;52.056;8.510;2024-03-02T08:48:43;19.53;;;9.23;;
26277;SDS011;14000;52.056;8.510;2024-03-02T08:51:09;17.30;;;8.60;;
26277;SDS011;14000;52.056;8.510;2024-03-02T08:53:35;18.67;;;8.40;;
26277;SDS011;14000;52.056;8.510;2024-03-02T08:56:01;16.87;;;7.57;;
26277;SDS011;14000;52.056;8.510;2024-03-02T08:58:27;17.07;;;7.60;;
26277;SDS011;14000;52.056;8.510;2024-03-02T09:00:52;15.50;;;7.10;;
26277;SDS011;14000;52.056;8.510;2024-03-02T09:03:18;14.90;;;6.53;;
26277;SDS011;14000;52.056;8.510;2024-03-02T09:05:44;16.63;;;7.33;;
26277;SDS011;14000;52.056;8.510;2024-03-02T09:08:09;14.80;;;7.23;;
26277;SDS011;14000;52.056;8.510;2024-03-02T09:10:35;16.80;;;8.50;;
26277;SDS011;14000;52.056;8.510;2024-03-02T09:13:01;16.60;;;8.00;;
26277;SDS011;14000;52.056;8.510;2024-03-02T09:15:26;18.20;;;7.70;;
26277;SDS011;14000;52.056;8.510;2024-03-02T09:17:52;18.83;;;8.17;;
26277;SDS011;14000;52.056;8.510;2024-03-02T09:20:17;15.80;;;7.77;;
26277;SDS011;14000;52.056;8.510;2024-03-02T09:22:43;16.77;;;7.20;;
26277;SDS011;14000;52.056;8.510;2024-03-02T09:25:08;15.60;;;6.93;;
26277;SDS011;14000;52.056;8.510;2024-03-02T09:30:12;18.07;;;6.77;;
26277;SDS011;14000;52.056;8.510;2024-03-02T09:32:39;14.93;;;6.17;;
26277;SDS011;14000;52.056;8.510;2024-03-02T09:35:04;13.87;;;6.07;;
26277;SDS011;14000;52.056;8.510;2024-03-02T09:37:30;13.53;;;6.10;;
26277;SDS011;14000;52.056;8.510;2024-03-02T09:39:56;13.93;;;5.73;;
26277;SDS011;14000;52.056;8.510;2024-03-02T09:42:21;12.13;;;5.20;;
26277;SDS011;14000;52.056;8.510;2024-03-02T09:44:48;11.10;;;4.43;;
26277;SDS011;14000;52.056;8.510;2024-03-02T09:47:13;11.07;;;4.50;;
26277;SDS011;14000;52.056;8.510;2024-03-02T09:49:39;11.97;;;4.57;;
26277;SDS011;14000;52.056;8.510;2024-03-02T09:52:05;14.40;;;4.43;;
26277;SDS011;14000;52.056;8.510;2024-03-02T09:54:31;11.73;;;4.83;;
26277;SDS011;14000;52.056;8.510;2024-03-02T09:56:57;11.03;;;4.40;;
26277;SDS011;14000;52.056;8.510;2024-03-02T09:59:24;11.30;;;4.30;;
26277;SDS011;14000;52.056;8.510;2024-03-02T10:01:59;11.90;;;4.93;;
26277;SDS011;14000;52.056;8.510;2024-03-02T10:04:26;10.60;;;4.57;;
26277;SDS011;14000;52.056;8.510;2024-03-02T10:07:06;12.33;;;4.77;;
26277;SDS011;14000;52.056;8.510;2024-03-02T10:09:34;11.97;;;4.90;;
26277;SDS011;14000;52.056;8.510;2024-03-02T10:12:06;10.87;;;4.63;;
26277;SDS011;14000;52.056;8.510;2024-03-02T10:14:33;12.03;;;4.93;;
26277;SDS011;14000;52.056;8.510;2024-03-02T10:17:06;13.47;;;5.40;;
26277;SDS011;14000;52.056;8.510;2024-03-02T10:19:33;15.10;;;6.60;;
26277;SDS011;14000;52.056;8.510;2024-03-02T10:22:00;14.47;;;6.70;;
26277;SDS011;14000;52.056;8.510;2024-03-02T10:24:27;13.40;;;5.97;;
26277;SDS011;14000;52.056;8.510;2024-03-02T10:27:00;14.10;;;5.90;;
26277;SDS011;14000;52.056;8.510;2024-03-02T10:29:28;14.43;;;6.00;;
26277;SDS011;14000;52.056;8.510;2024-03-02T10:31:54;14.33;;;6.27;;
26277;SDS011;14000;52.056;8.510;2024-03-02T10:34:21;15.20;;;6.23;;
26277;SDS011;14000;52.056;8.510;2024-03-02T10:36:47;13.80;;;6.00;;
26277;SDS011;14000;52.056;8.510;2024-03-02T10:39:13;13.83;;;6.03;;
26277;SDS011;14000;52.056;8.510;2024-03-02T10:41:40;12.93;;;4.63;;
26277;SDS011;14000;52.056;8.510;2024-03-02T10:44:07;12.70;;;5.83;;
26277;SDS011;14000;52.056;8.510;2024-03-02T10:46:35;13.27;;;4.93;;
26277;SDS011;14000;52.056;8.510;2024-03-02T10:49:02;13.10;;;5.43;;
26277;SDS011;14000;52.056;8.510;2024-03-02T10:51:32;11.90;;;5.03;;
26277;SDS011;14000;52.056;8.510;2024-03-02T10:54:01;11.57;;;5.27;;
26277;SDS011;14000;52.056;8.510;2024-03-02T10:56:29;14.57;;;5.53;;
26277;SDS011;14000;52.056;8.510;2024-03-02T10:59:02;12.67;;;5.70;;
26277;SDS011;14000;52.056;8.510;2024-03-02T11:01:47;12.60;;;5.20;;
26277;SDS011;14000;52.056;8.510;2024-03-02T11:04:15;11.57;;;5.00;;
26277;SDS011;14000;52.056;8.510;2024-03-02T11:06:49;11.23;;;4.53;;
26277;SDS011;14000;52.056;8.510;2024-03-02T11:09:15;11.73;;;4.60;;
26277;SDS011;14000;52.056;8.510;2024-03-02T11:11:44;13.30;;;5.47;;
26277;SDS011;14000;52.056;8.510;2024-03-02T11:14:13;13.60;;;5.80;;
26277;SDS011;14000;52.056;8.510;2024-03-02T11:16:42;10.83;;;4.37;;
26277;SDS011;14000;52.056;8.510;2024-03-02T11:19:09;10.77;;;4.33;;
26277;SDS011;14000;52.056;8.510;2024-03-02T11:21:36;11.20;;;4.47;;
26277;SDS011;14000;52.056;8.510;2024-03-02T11:26:48;12.93;;;3.70;;
26277;SDS011;14000;52.056;8.510;2024-03-02T11:32:00;9.97;;;4.07;;
26277;SDS011;14000;52.056;8.510;2024-03-02T11:34:31;9.57;;;3.87;;
26277;SDS011;14000;52.056;8.510;2024-03-02T11:37:03;11.13;;;4.13;;
26277;SDS011;14000;52.056;8.510;2024-03-02T11:39:29;9.70;;;3.90;;
26277;SDS011;14000;52.056;8.510;2024-03-02T11:41:56;12.33;;;4.43;;
26277;SDS011;14000;52.056;8.510;2024-03-02T11:44:24;10.27;;;4.33;;
26277;SDS011;14000;52.056;8.510;2024-03-02T11:47:07;9.30;;;3.80;;
26277;SDS011;14000;52.056;8.510;2024-03-02T11:49:45;10.13;;;4.07;;
26277;SDS011;14000;52.056;8.510;2024-03-02T11:52:14;10.70;;;3.70;;
26277;SDS011;14000;52.056;8.510;2024-03-02T11:54:42;9.90;;;4.20;;
26277;SDS011;14000;52.056;8.510;2024-03-02T11:57:11;9.33;;;3.77;;
26277;SDS011;14000;52.056;8.510;2024-03-02T11:59:42;10.10;;;4.80;;
26277;SDS011;14000;52.056;8.510;2024-03-02T12:02:14;12.07;;;4.77;;
26277;SDS011;14000;52.056;8.510;2024-03-02T12:04:44;10.37;;;4.07;;
26277;SDS011;14000;52.056;8.510;2024-03-02T12:07:11;8.83;;;3.93;;
26277;SDS011;14000;52.056;8.510;2024-03-02T12:09:37;9.40;;;3.90;;
26277;SDS011;14000;52.056;8.510;2024-03-02T12:14:34;13.30;;;5.00;;
26277;SDS011;14000;52.056;8.510;2024-03-02T12:17:04;10.30;;;4.20;;
26277;SDS011;14000;52.056;8.510;2024-03-02T12:19:36;11.40;;;4.63;;
26277;SDS011;14000;52.056;8.510;2024-03-02T12:22:02;10.63;;;4.50;;
26277;SDS011;14000;52.056;8.510;2024-03-02T12:24:28;10.50;;;4.93;;
26277;SDS011;14000;52.056;8.510;2024-03-02T12:26:54;11.53;;;5.07;;
26277;SDS011;14000;52.056;8.510;2024-03-02T12:29:21;13.87;;;5.00;;
26277;SDS011;14000;52.056;8.510;2024-03-02T12:31:48;10.80;;;4.83;;
26277;SDS011;14000;52.056;8.510;2024-03-02T12:34:14;11.63;;;5.10;;
26277;SDS011;14000;52.056;8.510;2024-03-02T12:36:41;12.13;;;5.33;;
26277;SDS011;14000;52.056;8.510;2024-03-02T12:39:08;11.53;;;5.17;;
26277;SDS011;14000;52.056;8.510;2024-03-02T12:41:38;10.43;;;4.30;;
26277;SDS011;14000;52.056;8.510;2024-03-02T12:44:04;11.03;;;5.10;;
26277;SDS011;14000;52.056;8.510;2024-03-02T12:46:30;10.60;;;4.80;;
26277;SDS011;14000;52.056;8.510;2024-03-02T12:48:57;10.43;;;4.50;;
26277;SDS011;14000;52.056;8.510;2024-03-02T12:51:31;12.43;;;4.33;;
26277;SDS011;14000;52.056;8.510;2024-03-02T12:53:57;11.87;;;4.90;;
26277;SDS011;14000;52.056;8.510;2024-03-02T12:56:26;11.03;;;5.07;;
26277;SDS011;14000;52.056;8.510;2024-03-02T12:58:55;10.00;;;4.90;;
26277;SDS011;14000;52.056;8.510;2024-03-02T13:01:21;11.50;;;4.80;;
26277;SDS011;14000;52.056;8.510;2024-03-02T13:03:49;9.77;;;4.13;;
26277;SDS011;14000;52.056;8.510;2024-03-02T13:06:22;13.47;;;4.30;;
26277;SDS011;14000;52.056;8.510;2024-03-02T13:08:48;10.23;;;3.90;;
26277;SDS011;14000;52.056;8.510;2024-03-02T13:11:15;10.03;;;4.37;;
26277;SDS011;14000;52.056;8.510;2024-03-02T13:13:41;11.63;;;4.40;;
26277;SDS011;14000;52.056;8.510;2024-03-02T13:16:08;10.97;;;4.70;;
26277;SDS011;14000;52.056;8.510;2024-03-02T13:18:35;12.00;;;4.70;;
26277;SDS011;14000;52.056;8.510;2024-03-02T13:21:01;10.90;;;3.70;;
26277;SDS011;14000;52.056;8.510;2024-03-02T13:23:26;9.50;;;3.50;;
26277;SDS011;14000;52.056;8.510;2024-03-02T13:25:56;11.23;;;3.50;;
26277;SDS011;14000;52.056;8.510;2024-03-02T13:28:23;9.93;;;3.40;;
26277;SDS011;14000;52.056;8.510;2024-03-02T13:30:49;11.47;;;3.77;;
26277;SDS011;14000;52.056;8.510;2024-03-02T13:33:15;12.33;;;4.00;;
26277;SDS011;14000;52.056;8.510;2024-03-02T13:35:40;45.00;;;12.30;;
26277;SDS011;14000;52.056;8.510;2024-03-02T13:38:06;12.00;;;3.70;;
26277;SDS011;14000;52.056;8.510;2024-03-02T13:40:31;17.63;;;5.67;;
26277;SDS011;14000;52.056;8.510;2024-03-02T13:43:00;8.37;;;3.00;;
26277;SDS011;14000;52.056;8.510;2024-03-02T13:45:27;9.40;;;3.83;;
26277;SDS011;14000;52.056;8.510;2024-03-02T13:47:53;11.03;;;4.17;;
26277;SDS011;14000;52.056;8.510;2024-03-02T13:50:18;9.53;;;3.07;;
26277;SDS011;14000;52.056;8.510;2024-03-02T13:52:47;8.93;;;3.20;;
26277;SDS011;14000;52.056;8.510;2024-03-02T13:55:12;10.17;;;3.50;;
26277;SDS011;14000;52.056;8.510;2024-03-02T13:57:38;24.73;;;6.07;;
26277;SDS011;14000;52.056;8.510;2024-03-02T14:00:04;12.67;;;4.87;;
26277;SDS011;14000;52.056;8.510;2024-03-02T14:02:35;11.57;;;3.77;;
26277;SDS011;14000;52.056;8.510;2024-03-02T14:05:01;9.20;;;3.23;;
26277;SDS011;14000;52.056;8.510;2024-03-02T14:07:27;12.13;;;3.87;;
26277;SDS011;14000;52.056;8.510;2024-03-02T14:09:53;14.80;;;4.47;;
26277;SDS011;14000;52.056;8.510;2024-03-02T14:12:18;10.63;;;3.37;;
26277;SDS011;14000;52.056;8.510;2024-03-02T14:14:44;9.27;;;3.33;;
26277;SDS011;14000;52.056;8.510;2024-03-02T14:17:09;8.23;;;2.70;;
26277;SDS011;14000;52.056;8.510;2024-03-02T14:19:39;9.60;;;3.10;;
26277;SDS011;14000;52.056;8.510;2024-03-02T14:22:05;8.20;;;3.00;;
26277;SDS011;14000;52.056;8.510;2024-03-02T14:24:34;9.67;;;2.70;;
26277;SDS011;14000;52.056;8.510;2024-03-02T14:26:59;9.30;;;3.00;;
26277;SDS011;14000;52.056;8.510;2024-03-02T14:29:28;8.17;;;2.80;;
26277;SDS011;14000;52.056;8.510;2024-03-02T14:31:54;7.67;;;2.80;;
26277;SDS011;14000;52.056;8.510;2024-03-02T14:34:19;7.77;;;2.70;;
26277;SDS011;14000;52.056;8.510;2024-03-02T14:36:45;9.23;;;2.90;;